createdAt,value
2022-08-11T00:02:38.291Z,100.00
2022-08-11T00:07:52.503Z,100.00
2022-08-11T00:12:57.946Z,100.00
2022-08-11T00:18:02.393Z,100.00
2022-08-11T00:23:08.860Z,100.00
2022-08-11T00:28:25.184Z,100.00
2022-08-11T00:33:44.779Z,100.00
2022-08-11T00:38:51.572Z,100.00
2022-08-11T00:44:15.474Z,100.00
2022-08-11T00:49:43.470Z,100.00
2022-08-11T00:55:20.304Z,100.00
2022-08-11T01:00:24.791Z,100.00
2022-08-11T01:05:48.693Z,100.00
2022-08-11T01:11:27.060Z,100.00
2022-08-11T01:17:03.076Z,100.00
2022-08-11T01:22:17.287Z,100.00
2022-08-11T01:27:45.487Z,100.00
2022-08-11T01:33:36.558Z,100.00
2022-08-11T01:39:06.138Z,100.00
2022-08-11T01:44:29.765Z,100.00
2022-08-11T01:50:09.057Z,100.00
2022-08-11T01:55:26.880Z,100.00
2022-08-11T02:00:33.268Z,100.00
2022-08-11T02:06:23.511Z,100.00
2022-08-11T02:11:44.563Z,100.00
2022-08-11T02:17:33.180Z,100.00
2022-08-11T02:24:04.508Z,100.00
2022-08-11T02:29:15.915Z,100.00
2022-08-11T02:34:35.504Z,100.00
2022-08-11T02:39:47.300Z,100.00
2022-08-11T02:45:42.444Z,100.00
2022-08-11T02:51:02.623Z,100.00
2022-08-11T02:56:29.076Z,100.00
2022-08-11T03:01:48.372Z,100.00
2022-08-11T03:06:50.541Z,100.00
2022-08-11T03:12:19.690Z,100.00
2022-08-11T03:17:37.831Z,100.00
2022-08-11T03:23:19.927Z,100.00
2022-08-11T03:28:31.652Z,100.00
2022-08-11T03:34:08.296Z,100.00
2022-08-11T03:39:39.569Z,100.00
2022-08-11T03:45:49.461Z,100.00
2022-08-11T03:51:27.524Z,100.00
2022-08-11T03:57:01.631Z,100.00
2022-08-11T04:02:06.850Z,100.00
2022-08-11T04:07:56.418Z,100.00
2022-08-11T04:13:38.524Z,100.00
2022-08-11T04:18:46.173Z,100.00
2022-08-11T04:24:12.926Z,100.00
2022-08-11T04:30:03.777Z,100.00
2022-08-11T04:35:13.980Z,100.00
2022-08-11T04:40:37.975Z,100.00
2022-08-11T04:45:49.140Z,100.00
2022-08-11T04:51:37.826Z,100.00
2022-08-11T04:57:02.148Z,100.00
2022-08-11T05:02:16.667Z,100.00
2022-08-11T05:07:42.054Z,100.00
2022-08-11T05:13:18.337Z,99.76
2022-08-11T05:18:42.483Z,98.50
2022-08-11T05:24:12.764Z,97.20
2022-08-11T05:29:57.975Z,96.84
2022-08-11T05:35:03.954Z,96.19
2022-08-11T05:40:40.334Z,96.01
2022-08-11T05:46:05.425Z,94.08
2022-08-11T05:51:35.492Z,92.75
2022-08-11T05:56:47.164Z,90.72
2022-08-11T06:01:50.290Z,87.66
2022-08-11T06:07:12.557Z,87.31
2022-08-11T06:17:55.850Z,84.05
2022-08-11T06:23:02.404Z,81.89
2022-08-11T06:28:06.840Z,78.91
2022-08-11T06:33:39.916Z,77.71
2022-08-11T06:38:54.159Z,76.36
2022-08-11T06:44:14.478Z,76.19
2022-08-11T06:49:37.756Z,74.93
2022-08-11T06:54:57.359Z,74.39
2022-08-11T07:00:26.394Z,74.66
2022-08-11T07:05:37.601Z,74.15
2022-08-11T07:11:32.210Z,72.58
2022-08-11T07:16:35.474Z,71.19
2022-08-11T07:22:03.770Z,70.21
2022-08-11T07:27:35.070Z,68.57
2022-08-11T07:32:49.855Z,66.20
2022-08-11T07:38:01.934Z,63.30
2022-08-11T07:43:07.144Z,61.72
2022-08-11T07:48:29.685Z,59.88
2022-08-11T07:53:33.825Z,57.40
2022-08-11T07:59:14.577Z,54.09
2022-08-11T08:04:38.341Z,53.23
2022-08-11T08:10:09.213Z,53.59
2022-08-11T08:15:37.135Z,52.66
2022-08-11T08:20:50.085Z,51.45
2022-08-11T08:25:53.004Z,50.17
2022-08-11T08:30:56.437Z,48.66
2022-08-11T08:36:13.009Z,46.89
2022-08-11T08:41:22.366Z,47.13
2022-08-11T08:46:50.538Z,45.00
2022-08-11T08:52:42.682Z,44.23
2022-08-11T08:57:39.317Z,42.68
2022-08-11T09:02:44.153Z,41.91
2022-08-11T09:07:51.265Z,42.93
2022-08-11T09:12:53.841Z,43.93
2022-08-11T09:18:06.175Z,44.45
2022-08-11T09:28:50.640Z,45.67
2022-08-11T09:33:55.210Z,47.27
2022-08-11T09:39:18.737Z,46.50
2022-08-11T09:44:53.116Z,45.56
2022-08-11T09:50:01.443Z,44.32
2022-08-11T09:55:11.414Z,41.21
2022-08-11T10:00:15.480Z,39.99
2022-08-11T10:05:39.838Z,40.36
2022-08-11T10:10:42.450Z,41.13
2022-08-11T10:16:02.370Z,40.47
2022-08-11T10:21:15.705Z,40.76
2022-08-11T10:26:41.986Z,40.84
2022-08-11T10:32:04.634Z,41.27
2022-08-11T10:37:08.915Z,39.98
2022-08-11T10:42:57.455Z,39.45
2022-08-11T10:47:59.461Z,39.86
2022-08-11T10:53:21.410Z,37.79
2022-08-11T10:58:42.993Z,35.62
2022-08-11T11:03:45.810Z,35.32
2022-08-11T11:08:57.661Z,37.32
2022-08-11T11:14:19.884Z,38.63
2022-08-11T11:19:25.288Z,40.28
2022-08-11T11:24:59.547Z,39.72
2022-08-11T11:30:07.483Z,38.99
2022-08-11T11:35:26.864Z,37.82
2022-08-11T11:40:31.960Z,35.63
2022-08-11T11:45:35.126Z,36.29
2022-08-11T11:50:38.160Z,34.27
2022-08-11T11:55:59.105Z,32.21
2022-08-11T12:01:17.031Z,34.18
2022-08-11T12:06:22.520Z,36.34
2022-08-11T12:11:44.169Z,36.22
2022-08-11T12:16:48.273Z,36.99
2022-08-11T12:22:13.349Z,36.45
2022-08-11T12:27:25.445Z,34.62
2022-08-11T12:32:31.070Z,35.36
2022-08-11T12:37:39.323Z,35.76
2022-08-11T12:43:01.993Z,37.45
2022-08-11T12:49:00.047Z,36.21
2022-08-11T12:54:02.625Z,35.03
2022-08-11T12:59:24.965Z,36.05
2022-08-11T13:04:48.486Z,35.71
2022-08-11T13:09:55.240Z,34.10
2022-08-11T13:14:59.699Z,31.87
2022-08-11T13:20:03.049Z,32.57
2022-08-11T13:25:07.831Z,33.86
2022-08-11T13:30:40.365Z,34.37
2022-08-11T13:35:49.738Z,34.86
2022-08-11T13:40:56.222Z,34.81
2022-08-11T13:46:19.051Z,34.50
2022-08-11T13:51:34.724Z,33.75
2022-08-11T13:56:40.059Z,33.06
2022-08-11T14:02:22.792Z,32.25
2022-08-11T14:07:11.795Z,31.89
2022-08-11T14:12:39.842Z,31.53
2022-08-11T14:17:48.070Z,30.81
2022-08-11T14:22:52.731Z,28.91
2022-08-11T14:28:31.781Z,28.25
2022-08-11T14:33:38.168Z,31.15
2022-08-11T14:39:08.608Z,36.06
2022-08-11T14:44:29.994Z,41.55
2022-08-11T14:49:37.590Z,48.13
2022-08-11T14:55:17.451Z,60.87
2022-08-11T15:00:19.633Z,74.21
2022-08-11T15:05:23.317Z,84.96
2022-08-11T15:10:32.055Z,91.16
2022-08-11T15:15:54.656Z,96.78
2022-08-11T15:21:36.590Z,97.14
2022-08-11T15:27:12.813Z,98.91
2022-08-11T15:32:20.566Z,100.00
2022-08-11T15:37:31.661Z,100.00
2022-08-11T15:42:59.417Z,100.00
2022-08-11T15:48:08.472Z,100.00
2022-08-11T15:53:24.438Z,100.00
2022-08-11T15:59:40.597Z,100.00
2022-08-11T16:04:21.476Z,100.00
2022-08-11T16:09:47.529Z,100.00
2022-08-11T16:15:29.555Z,100.00
2022-08-11T16:20:46.165Z,100.00
2022-08-11T16:25:58.165Z,100.00
2022-08-11T16:31:13.063Z,100.00
2022-08-11T16:36:35.086Z,100.00
2022-08-11T16:41:59.432Z,100.00
2022-08-11T16:47:03.576Z,100.00
2022-08-11T16:52:12.159Z,98.88
2022-08-11T16:57:41.194Z,93.02
2022-08-11T17:03:09.721Z,90.73
2022-08-11T17:08:31.093Z,87.01
2022-08-11T17:13:42.558Z,82.22
2022-08-11T17:18:59.668Z,78.40
2022-08-11T17:24:14.601Z,76.77
2022-08-11T17:29:53.933Z,77.55
2022-08-11T17:35:20.302Z,79.24
2022-08-11T17:40:24.775Z,79.69
2022-08-11T17:45:46.258Z,79.34
2022-08-11T17:50:50.057Z,80.70
2022-08-11T17:56:11.845Z,82.64
2022-08-11T18:01:14.811Z,86.09
2022-08-11T18:06:18.726Z,88.65
2022-08-11T18:12:11.953Z,92.46
2022-08-11T18:17:22.132Z,95.82
2022-08-11T18:22:48.447Z,97.53
2022-08-11T18:28:13.214Z,99.70
2022-08-11T18:34:06.001Z,100.00
2022-08-11T18:39:21.588Z,100.00
2022-08-11T18:44:47.642Z,100.00
2022-08-11T18:50:14.510Z,100.00
2022-08-11T18:55:43.037Z,100.00
2022-08-11T19:01:06.172Z,100.00
2022-08-11T19:06:41.586Z,100.00
2022-08-11T19:12:17.822Z,100.00
2022-08-11T19:17:43.479Z,100.00
2022-08-11T19:23:08.317Z,100.00
2022-08-11T19:28:29.199Z,100.00
2022-08-11T19:34:03.206Z,100.00
2022-08-11T19:39:33.333Z,100.00
2022-08-11T19:44:54.429Z,100.00
2022-08-11T19:50:21.533Z,100.00
2022-08-11T19:55:48.164Z,100.00
2022-08-11T20:01:09.520Z,100.00
2022-08-11T20:06:41.433Z,100.00
2022-08-11T20:12:14.578Z,100.00
2022-08-11T20:17:52.576Z,100.00
2022-08-11T20:23:16.153Z,100.00
2022-08-11T20:28:38.643Z,100.00
2022-08-11T20:34:01.845Z,100.00
2022-08-11T20:39:23.041Z,100.00
2022-08-11T20:44:44.578Z,100.00
2022-08-11T20:50:06.539Z,100.00
2022-08-11T20:55:51.491Z,100.00
2022-08-11T21:01:20.546Z,100.00
2022-08-11T21:06:53.039Z,100.00
2022-08-11T21:12:17.260Z,100.00
2022-08-11T21:17:42.909Z,100.00
2022-08-11T21:23:27.613Z,100.00
2022-08-11T21:28:52.344Z,100.00
2022-08-11T21:34:15.364Z,100.00
2022-08-11T21:39:39.087Z,100.00
2022-08-11T21:45:02.251Z,100.00
2022-08-11T21:50:23.714Z,100.00
2022-08-11T21:55:45.721Z,100.00
2022-08-11T22:01:06.810Z,100.00
2022-08-11T22:06:27.456Z,100.00
2022-08-11T22:11:48.690Z,100.00
2022-08-11T22:17:29.201Z,100.00
2022-08-11T22:22:52.779Z,100.00
2022-08-11T22:28:14.902Z,100.00
2022-08-11T22:33:37.686Z,100.00
2022-08-11T22:39:20.215Z,100.00
2022-08-11T22:44:41.051Z,100.00
2022-08-11T22:50:03.359Z,100.00
2022-08-11T22:55:32.140Z,100.00
2022-08-11T23:00:52.709Z,100.00
2022-08-11T23:06:15.170Z,100.00
2022-08-11T23:12:06.355Z,100.00
2022-08-11T23:17:17.440Z,100.00
2022-08-11T23:22:50.027Z,100.00
2022-08-11T23:28:12.449Z,100.00
2022-08-11T23:33:36.638Z,100.00
2022-08-11T23:38:57.154Z,100.00
2022-08-11T23:44:22.932Z,100.00
2022-08-11T23:49:44.390Z,100.00
2022-08-11T23:55:04.911Z,100.00
